Time;durP1;ratioP1;P1;durP2;ratioP2;P2;SDS_P1;SDS_P2;PMS_P1;PMS_P2;Temp;Humidity;BMP_temperature;BMP_pressure;BME280_temperature;BME280_humidity;BME280_pressure;Samples;Min_cycle;Max_cycle;Signal;HPM_P1;HPM_P2
2022/09/27 00:00:27;;;;;;;4.18;0.73;;;11.50;99.90;;;;;;6170616;22;20094;-76
2022/09/27 00:02:52;;;;;;;2.03;0.60;;;11.50;99.90;;;;;;6220610;22;20051;-75
2022/09/27 00:05:18;;;;;;;1.52;0.52;;;11.50;99.90;;;;;;6220987;22;20522;-76
2022/09/27 00:07:44;;;;;;;1.98;0.60;;;11.50;99.90;;;;;;6222082;22;20100;-76
2022/09/27 00:10:11;;;;;;;2.88;0.60;;;11.40;99.90;;;;;;6245097;22;20328;-76
2022/09/27 00:12:37;;;;;;;3.97;0.80;;;11.40;99.90;;;;;;6245900;22;20020;-76
2022/09/27 00:15:04;;;;;;;4.03;0.90;;;11.40;99.90;;;;;;6246143;22;20051;-76
2022/09/27 00:17:30;;;;;;;5.15;0.90;;;11.40;99.90;;;;;;6220945;22;20078;-77
2022/09/27 00:19:59;;;;;;;3.70;0.82;;;11.40;99.90;;;;;;6245433;22;20023;-77
2022/09/27 00:22:25;;;;;;;2.42;0.70;;;11.50;99.90;;;;;;6245808;22;20020;-76
2022/09/27 00:24:51;;;;;;;2.50;0.82;;;11.50;99.90;;;;;;6245328;22;20065;-76
2022/09/27 00:27:18;;;;;;;4.65;0.82;;;11.50;99.90;;;;;;6273677;22;20022;-76
2022/09/27 00:29:45;;;;;;;3.85;1.00;;;11.60;99.90;;;;;;6246261;22;20020;-76
2022/09/27 00:32:11;;;;;;;3.53;1.00;;;11.50;99.90;;;;;;6245432;22;20054;-76
2022/09/27 00:34:37;;;;;;;3.42;0.93;;;11.60;99.90;;;;;;6220518;22;20023;-76
2022/09/27 00:37:03;;;;;;;4.50;1.17;;;11.60;99.90;;;;;;6245459;22;20030;-76
2022/09/27 00:39:29;;;;;;;5.93;1.10;;;11.70;99.90;;;;;;6220122;22;20016;-76
2022/09/27 00:41:55;;;;;;;8.15;1.20;;;11.70;99.90;;;;;;6194017;22;20030;-76
2022/09/27 00:44:27;;;;;;;5.50;1.10;;;11.70;99.90;;;;;;6246039;22;20019;-76
2022/09/27 00:47:11;;;;;;;4.95;1.67;;;11.70;99.90;;;;;;6244693;22;20016;-76
2022/09/27 00:50:09;;;;;;;5.43;1.00;;;11.70;99.90;;;;;;6219399;22;20058;-77
2022/09/27 00:53:13;;;;;;;3.30;1.05;;;11.70;99.90;;;;;;6245537;22;20347;-77
2022/09/27 00:55:47;;;;;;;3.00;0.90;;;11.70;99.90;;;;;;6245177;22;20034;-76
2022/09/27 00:58:17;;;;;;;3.78;0.93;;;11.80;99.90;;;;;;6245252;22;20094;-77
2022/09/27 01:00:47;;;;;;;4.22;1.00;;;11.80;99.90;;;;;;6244791;22;20050;-77
2022/09/27 01:03:27;;;;;;;5.40;1.20;;;11.80;99.90;;;;;;6219264;22;20027;-76
2022/09/27 01:05:53;;;;;;;5.15;1.20;;;11.80;99.90;;;;;;6219708;22;20084;-76
2022/09/27 01:08:19;;;;;;;6.88;1.20;;;11.70;99.90;;;;;;6245492;22;20022;-79
2022/09/27 01:11:03;;;;;;;4.85;1.20;;;11.60;99.90;;;;;;6194496;22;20019;-76
2022/09/27 01:13:37;;;;;;;3.63;1.05;;;11.50;99.90;;;;;;6221029;22;20020;-76
2022/09/27 01:16:20;;;;;;;3.55;0.90;;;11.50;99.90;;;;;;6245957;22;20023;-76
2022/09/27 01:18:49;;;;;;;3.00;0.90;;;11.40;99.90;;;;;;6245693;22;20101;-75
2022/09/27 01:21:31;;;;;;;5.82;1.00;;;11.40;99.90;;;;;;6219436;22;20407;-76
2022/09/27 01:24:26;;;;;;;7.07;0.82;;;11.30;99.90;;;;;;6219742;22;20024;-76
2022/09/27 01:27:21;;;;;;;3.35;0.80;;;11.20;99.90;;;;;;6219529;22;20073;-76
2022/09/27 01:30:25;;;;;;;9.05;1.25;;;11.10;99.90;;;;;;6244845;22;20020;-79
2022/09/27 01:33:06;;;;;;;2.83;0.70;;;11.00;99.90;;;;;;6245225;22;20024;-76
2022/09/27 01:35:38;;;;;;;1.88;0.63;;;10.90;99.90;;;;;;6220349;22;20098;-76
2022/09/27 01:38:37;;;;;;;4.03;0.77;;;10.90;99.90;;;;;;6219230;22;20024;-76
2022/09/27 01:41:27;;;;;;;5.22;0.98;;;10.90;99.90;;;;;;6244306;22;20059;-76
2022/09/27 01:44:10;;;;;;;4.03;1.08;;;10.90;99.90;;;;;;6219740;22;20026;-77
2022/09/27 01:46:54;;;;;;;4.55;0.82;;;10.90;99.90;;;;;;6245767;22;20034;-77
2022/09/27 01:49:32;;;;;;;9.45;1.20;;;10.90;99.90;;;;;;6243983;22;20402;-77
2022/09/27 01:52:02;;;;;;;3.75;0.73;;;11.00;99.90;;;;;;6219484;22;20355;-77
2022/09/27 01:54:38;;;;;;;12.57;1.40;;;10.90;99.90;;;;;;6220815;22;20102;-77
2022/09/27 01:57:06;;;;;;;6.10;1.15;;;10.90;99.90;;;;;;6245308;22;20016;-77
2022/09/27 01:59:53;;;;;;;5.90;1.25;;;10.90;99.90;;;;;;6272069;22;20015;-77
2022/09/27 02:02:23;;;;;;;7.18;1.10;;;10.90;99.90;;;;;;6271246;22;20019;-77
2022/09/27 02:04:52;;;;;;;4.82;1.15;;;10.90;99.90;;;;;;6244713;22;20161;-77
2022/09/27 02:07:23;;;;;;;4.43;1.05;;;10.80;99.90;;;;;;6244279;22;20047;-77
2022/09/27 02:09:58;;;;;;;6.15;1.40;;;10.80;99.90;;;;;;6244425;22;20112;-77
2022/09/27 02:12:30;;;;;;;4.28;0.90;;;10.80;99.90;;;;;;6245256;22;20298;-77
2022/09/27 02:15:11;;;;;;;5.13;1.15;;;10.80;99.90;;;;;;6245080;22;20527;-77
2022/09/27 02:17:49;;;;;;;4.57;0.65;;;10.80;99.90;;;;;;6219744;22;20355;-77
2022/09/27 02:20:34;;;;;;;2.67;0.70;;;10.80;99.90;;;;;;6244240;22;20027;-77
2022/09/27 02:23:18;;;;;;;4.53;0.98;;;10.80;99.90;;;;;;6244973;22;20098;-76
2022/09/27 02:25:50;;;;;;;4.90;0.90;;;10.80;99.90;;;;;;6219727;22;20019;-77
2022/09/27 02:28:25;;;;;;;4.60;0.90;;;10.90;99.90;;;;;;6245549;22;20057;-77
2022/09/27 02:30:51;;;;;;;4.45;0.93;;;11.00;99.90;;;;;;6245404;22;20019;-77
2022/09/27 02:33:21;;;;;;;4.97;1.10;;;11.00;99.90;;;;;;6245194;22;20038;-77
2022/09/27 02:35:47;;;;;;;4.07;1.00;;;11.10;99.90;;;;;;6219881;22;20081;-77
2022/09/27 02:38:12;;;;;;;5.05;0.95;;;11.10;99.90;;;;;;6194031;22;20019;-77
2022/09/27 02:40:44;;;;;;;5.35;1.00;;;11.10;99.90;;;;;;6218239;22;20741;-76
2022/09/27 02:43:11;;;;;;;6.60;1.27;;;11.10;99.90;;;;;;6244079;22;20024;-77
2022/09/27 02:46:13;;;;;;;3.80;1.10;;;11.10;99.90;;;;;;6219134;22;20024;-77
2022/09/27 02:49:02;;;;;;;7.95;1.60;;;11.00;99.90;;;;;;6245383;22;20016;-76
2022/09/27 02:52:03;;;;;;;2.63;0.70;;;11.00;99.90;;;;;;6221750;22;20020;-77
2022/09/27 02:54:50;;;;;;;4.53;1.00;;;11.00;99.90;;;;;;6095770;23;20036;-77
2022/09/27 03:00:14;;;;;;;3.05;0.73;;;10.90;99.90;;;;;;6233086;22;20429;-80
2022/09/27 03:02:52;;;;;;;2.05;0.60;;;10.90;99.90;;;;;;6247945;22;20081;-80
2022/09/27 03:05:26;;;;;;;1.85;0.50;;;10.80;99.90;;;;;;6223157;22;20023;-81
2022/09/27 03:07:51;;;;;;;3.03;0.88;;;10.80;99.90;;;;;;6248448;22;20583;-81
2022/09/27 03:10:22;;;;;;;1.40;0.60;;;11.20;99.90;;;;;;6197306;22;20019;-81
2022/09/27 03:12:49;;;;;;;2.30;0.80;;;10.60;99.90;;;;;;6224072;22;20347;-81
2022/09/27 03:15:15;;;;;;;1.60;0.75;;;10.70;99.90;;;;;;6255866;22;20015;-81
2022/09/27 03:17:41;;;;;;;4.10;0.60;;;10.70;99.90;;;;;;6247246;22;20067;-80
2022/09/27 03:20:08;;;;;;;2.83;0.60;;;10.70;99.90;;;;;;6241245;22;20024;-81
2022/09/27 03:22:34;;;;;;;2.50;0.70;;;9.50;99.90;;;;;;6249565;22;20094;-80
2022/09/27 03:25:00;;;;;;;1.70;0.50;;;10.70;99.90;;;;;;6198358;22;20026;-81
2022/09/27 03:27:26;;;;;;;2.17;0.60;;;11.20;99.90;;;;;;6264244;22;20067;-79
2022/09/27 03:29:52;;;;;;;4.43;0.75;;;10.70;99.90;;;;;;6218804;22;20011;-80
2022/09/27 03:32:18;;;;;;;1.20;0.52;;;10.70;99.90;;;;;;6222709;22;20074;-80
2022/09/27 03:34:43;;;;;;;6.95;1.27;;;11.20;99.90;;;;;;6246656;22;20022;-80
2022/09/27 03:37:09;;;;;;;2.42;0.80;;;10.70;99.90;;;;;;6221692;22;20098;-81
2022/09/27 03:39:35;;;;;;;5.57;1.00;;;10.80;99.90;;;;;;6197090;22;20016;-81
2022/09/27 03:42:01;;;;;;;3.97;0.80;;;10.80;99.90;;;;;;6222434;22;20015;-81
2022/09/27 03:44:27;;;;;;;4.53;0.73;;;10.20;99.90;;;;;;6221728;22;20327;-81
2022/09/27 03:46:52;;;;;;;3.95;1.00;;;10.80;99.90;;;;;;6196792;22;20030;-79
2022/09/27 03:49:18;;;;;;;3.22;1.00;;;10.90;99.90;;;;;;6246300;22;20023;-80
2022/09/27 03:51:44;;;;;;;4.57;1.00;;;10.90;99.90;;;;;;6248548;22;20312;-79
2022/09/27 03:54:10;;;;;;;5.13;0.98;;;10.80;99.90;;;;;;6197380;22;20024;-80
2022/09/27 03:56:35;;;;;;;3.58;0.60;;;10.50;99.90;;;;;;6222661;22;20077;-80
2022/09/27 03:59:01;;;;;;;3.78;0.93;;;11.10;99.90;;;;;;6221963;22;20378;-80
2022/09/27 04:01:27;;;;;;;2.95;0.60;;;10.70;99.90;;;;;;6222434;22;20070;-80
2022/09/27 04:03:53;;;;;;;3.30;0.70;;;10.80;99.90;;;;;;6222970;22;20019;-81
2022/09/27 04:06:19;;;;;;;5.95;1.15;;;9.60;99.90;;;;;;6247183;22;20458;-80
2022/09/27 04:08:46;;;;;;;4.43;0.70;;;10.90;99.90;;;;;;6247214;22;20022;-80
2022/09/27 04:11:14;;;;;;;4.40;0.80;;;10.70;99.90;;;;;;6221257;22;20012;-82
2022/09/27 04:13:40;;;;;;;5.07;0.90;;;10.30;99.90;;;;;;6221206;22;20043;-81
2022/09/27 04:16:06;;;;;;;3.40;0.70;;;10.70;99.90;;;;;;6221601;22;20015;-80
2022/09/27 04:18:32;;;;;;;3.92;0.80;;;10.70;99.90;;;;;;6247099;22;20016;-81
2022/09/27 04:20:58;;;;;;;3.60;0.80;;;10.70;99.90;;;;;;6221265;22;20107;-79
2022/09/27 04:23:24;;;;;;;3.25;0.80;;;10.90;99.90;;;;;;6220983;22;20398;-81
2022/09/27 04:25:50;;;;;;;4.15;0.80;;;9.40;99.90;;;;;;6222358;22;20020;-82
2022/09/27 04:28:15;;;;;;;3.40;0.60;;;10.90;99.90;;;;;;6171584;22;20055;-81
2022/09/27 04:30:41;;;;;;;2.03;0.50;;;10.80;99.90;;;;;;6247175;22;20095;-81
2022/09/27 04:33:07;;;;;;;3.90;0.70;;;10.80;99.90;;;;;;6247963;22;20012;-81
2022/09/27 04:38:21;;;;;;;3.78;0.50;;;11.90;99.90;;;;;;6246123;22;20406;-81
2022/09/27 04:40:47;;;;;;;2.03;0.95;;;10.80;99.90;;;;;;6246664;22;20811;-80
2022/09/27 04:43:13;;;;;;;3.60;0.60;;;9.90;99.90;;;;;;6246513;22;20440;-80
2022/09/27 04:45:39;;;;;;;4.20;0.80;;;10.80;99.90;;;;;;6221576;22;20215;-81
2022/09/27 04:48:04;;;;;;;7.22;1.10;;;10.80;99.90;;;;;;6196765;22;20030;-80
2022/09/27 04:50:31;;;;;;;3.85;0.80;;;10.80;99.90;;;;;;6220870;22;20012;-81
2022/09/27 04:52:57;;;;;;;6.97;1.13;;;10.90;99.90;;;;;;6221334;22;20114;-80
2022/09/27 04:55:22;;;;;;;2.80;0.75;;;10.90;99.90;;;;;;6221541;22;20028;-80
2022/09/27 04:57:48;;;;;;;5.20;1.08;;;11.00;99.90;;;;;;6221238;22;20023;-80
2022/09/27 05:00:15;;;;;;;2.70;0.70;;;10.90;99.90;;;;;;6219308;22;20031;-79
2022/09/27 05:02:47;;;;;;;6.90;0.90;;;10.90;99.90;;;;;;6220835;22;20074;-79
2022/09/27 05:05:14;;;;;;;2.47;0.80;;;11.20;99.90;;;;;;6246534;22;20019;-80
2022/09/27 05:07:40;;;;;;;3.55;0.80;;;10.80;99.90;;;;;;6221139;22;20067;-80
2022/09/27 05:10:07;;;;;;;4.75;0.90;;;10.70;99.90;;;;;;6221420;22;20328;-80
2022/09/27 05:12:33;;;;;;;3.25;0.60;;;10.80;99.90;;;;;;6221447;22;20018;-80
2022/09/27 05:14:58;;;;;;;5.28;0.98;;;10.80;99.90;;;;;;6221066;22;20019;-80
2022/09/27 05:17:24;;;;;;;3.90;0.85;;;10.70;99.90;;;;;;6220605;22;20093;-79
2022/09/27 05:19:51;;;;;;;2.85;0.95;;;10.80;99.90;;;;;;6220811;22;20015;-80
2022/09/27 05:22:16;;;;;;;6.32;1.10;;;11.00;99.90;;;;;;6246646;22;20011;-80
2022/09/27 05:24:42;;;;;;;2.95;0.73;;;10.80;99.90;;;;;;6246965;22;20678;-80
2022/09/27 05:27:17;;;;;;;3.60;0.70;;;10.80;99.90;;;;;;6222004;22;20074;-80
2022/09/27 05:29:44;;;;;;;2.83;0.60;;;10.70;99.90;;;;;;6221302;22;20012;-79
2022/09/27 05:32:10;;;;;;;2.83;0.80;;;10.70;99.90;;;;;;6247142;22;20020;-80
2022/09/27 05:34:35;;;;;;;6.72;0.80;;;11.00;99.90;;;;;;6222162;22;20109;-80
2022/09/27 05:37:01;;;;;;;4.80;0.80;;;10.70;99.90;;;;;;6212084;22;20024;-80
2022/09/27 05:39:28;;;;;;;3.83;1.15;;;10.70;99.90;;;;;;6230669;22;20102;-80
2022/09/27 05:41:55;;;;;;;2.40;0.77;;;10.80;99.90;;;;;;6196456;22;20070;-80
2022/09/27 05:44:20;;;;;;;2.70;1.00;;;10.70;99.90;;;;;;6172249;22;20094;-80
2022/09/27 05:46:46;;;;;;;2.53;1.10;;;10.80;99.90;;;;;;6199372;22;20062;-79
2022/09/27 05:49:12;;;;;;;2.60;1.45;;;10.70;99.90;;;;;;6212707;22;20020;-80
2022/09/27 05:51:38;;;;;;;3.85;1.70;;;10.90;99.90;;;;;;6176110;22;20072;-79
2022/09/27 05:54:04;;;;;;;4.20;1.00;;;10.90;99.90;;;;;;6171170;22;20085;-80
2022/09/27 05:56:29;;;;;;;1.98;0.63;;;10.90;99.90;;;;;;6220225;22;20165;-80
2022/09/27 05:58:56;;;;;;;2.90;0.60;;;10.90;99.90;;;;;;6232220;22;20101;-80
2022/09/27 06:01:22;;;;;;;2.35;0.60;;;10.80;99.90;;;;;;6184650;23;20055;-80
2022/09/27 06:03:48;;;;;;;2.15;0.70;;;10.90;99.90;;;;;;6183784;23;20017;-81
2022/09/27 06:06:14;;;;;;;1.88;0.80;;;10.80;99.90;;;;;;6185008;23;20031;-81
2022/09/27 06:08:40;;;;;;;2.92;1.10;;;11.10;99.90;;;;;;6185343;23;20025;-81
2022/09/27 06:11:11;;;;;;;3.58;1.20;;;10.10;99.90;;;;;;6208268;23;20021;-82
2022/09/27 06:13:38;;;;;;;2.45;1.10;;;10.80;99.90;;;;;;6183916;23;20021;-82
2022/09/27 06:16:05;;;;;;;4.95;1.10;;;11.10;99.90;;;;;;6159951;23;20017;-82
2022/09/27 06:18:31;;;;;;;4.05;1.45;;;11.10;99.90;;;;;;6182086;23;20721;-81
2022/09/27 06:21:02;;;;;;;3.50;1.20;;;11.20;99.90;;;;;;6183692;23;20044;-81
2022/09/27 06:23:31;;;;;;;4.45;1.15;;;11.10;99.90;;;;;;6182226;23;20024;-82
2022/09/27 06:26:02;;;;;;;6.20;1.08;;;11.30;99.90;;;;;;6183962;23;20021;-82
2022/09/27 06:28:28;;;;;;;5.63;1.00;;;11.30;99.90;;;;;;6183925;23;20020;-81
2022/09/27 06:30:59;;;;;;;7.20;1.23;;;11.30;99.90;;;;;;6185218;23;20310;-84
2022/09/27 06:33:26;;;;;;;5.68;1.20;;;11.20;99.90;;;;;;6209604;23;20017;-82
2022/09/27 06:35:52;;;;;;;5.38;1.38;;;11.50;99.90;;;;;;6185751;23;20433;-81
2022/09/27 06:38:20;;;;;;;4.13;0.90;;;11.30;99.90;;;;;;6185521;23;20059;-83
2022/09/27 06:40:46;;;;;;;7.47;1.40;;;11.40;99.90;;;;;;6184352;23;20027;-81
2022/09/27 06:43:14;;;;;;;4.32;1.10;;;11.30;99.90;;;;;;6209379;23;20103;-81
2022/09/27 06:45:41;;;;;;;4.88;1.05;;;11.30;99.90;;;;;;6183419;23;20051;-82
2022/09/27 06:48:11;;;;;;;8.90;1.27;;;11.30;99.90;;;;;;6184388;23;20026;-80
2022/09/27 06:50:38;;;;;;;9.20;1.23;;;11.40;99.90;;;;;;6183656;23;20128;-80
2022/09/27 06:53:06;;;;;;;7.80;1.52;;;11.30;99.90;;;;;;6206819;23;20027;-81
2022/09/27 06:55:32;;;;;;;9.88;1.55;;;11.30;99.90;;;;;;6180922;23;20100;-81
2022/09/27 07:00:46;;;;;;;6.45;1.35;;;11.40;99.90;;;;;;6211456;22;20123;-81
2022/09/27 07:03:13;;;;;;;6.00;1.23;;;10.40;99.90;;;;;;6208472;23;20027;-82
2022/09/27 07:05:42;;;;;;;8.20;1.38;;;11.50;99.90;;;;;;6182521;23;20062;-81
2022/09/27 07:08:10;;;;;;;3.25;0.75;;;11.50;99.90;;;;;;6182283;23;20020;-82
2022/09/27 07:10:38;;;;;;;6.20;1.17;;;11.60;99.90;;;;;;6157457;23;20025;-79
2022/09/27 07:13:06;;;;;;;5.85;1.38;;;11.60;99.90;;;;;;6209967;23;20024;-82
2022/09/27 07:15:35;;;;;;;2.88;0.93;;;11.60;99.90;;;;;;6207993;23;20024;-81
2022/09/27 07:18:01;;;;;;;5.55;0.70;;;11.60;99.90;;;;;;6159007;23;20024;-81
2022/09/27 07:20:30;;;;;;;5.13;1.10;;;11.60;99.90;;;;;;6181481;23;20012;-78
2022/09/27 07:22:57;;;;;;;3.05;0.90;;;11.50;99.90;;;;;;6182380;23;20032;-79
2022/09/27 07:25:24;;;;;;;5.22;0.98;;;11.50;99.90;;;;;;6156991;23;20048;-79
2022/09/27 07:27:51;;;;;;;5.07;1.05;;;10.10;99.90;;;;;;6207234;23;20017;-78
2022/09/27 07:30:18;;;;;;;3.92;0.98;;;11.40;99.90;;;;;;6207177;23;20063;-79
2022/09/27 07:32:44;;;;;;;2.63;0.82;;;11.40;99.90;;;;;;6182704;23;20318;-80
2022/09/27 07:35:14;;;;;;;7.03;1.17;;;11.40;99.90;;;;;;6183497;23;20408;-79
2022/09/27 07:37:40;;;;;;;4.40;1.00;;;11.50;99.90;;;;;;6209258;23;20039;-81
2022/09/27 07:40:08;;;;;;;5.95;1.17;;;11.50;99.90;;;;;;6183557;23;20479;-80
2022/09/27 07:42:37;;;;;;;4.78;0.93;;;11.50;99.90;;;;;;6184963;23;20020;-79
2022/09/27 07:45:05;;;;;;;6.32;0.90;;;11.50;99.90;;;;;;6211679;23;20091;-82
2022/09/27 07:47:32;;;;;;;5.35;1.00;;;11.60;99.90;;;;;;6185927;23;20122;-78
2022/09/27 07:49:58;;;;;;;6.43;1.05;;;11.60;99.90;;;;;;6210139;23;20024;-76
2022/09/27 07:52:23;;;;;;;6.22;1.10;;;11.60;99.90;;;;;;6211343;23;20136;-80
2022/09/27 07:54:49;;;;;;;3.40;0.70;;;11.70;99.90;;;;;;6160985;23;20024;-80
2022/09/27 07:57:16;;;;;;;2.65;0.70;;;11.60;99.90;;;;;;6227251;23;20036;-80
2022/09/27 07:59:42;;;;;;;6.82;1.60;;;11.70;99.90;;;;;;6189857;23;20020;-80
2022/09/27 08:02:15;;;;;;;7.43;1.35;;;11.20;99.90;;;;;;6183832;23;20108;-76
2022/09/27 08:04:47;;;;;;;9.07;1.58;;;11.50;99.90;;;;;;6208594;23;20111;-81
2022/09/27 08:07:16;;;;;;;5.13;1.30;;;11.30;99.90;;;;;;6186946;23;20027;-81
2022/09/27 08:09:41;;;;;;;11.80;2.30;;;11.20;99.90;;;;;;6167998;23;20244;-79
2022/09/27 08:12:07;;;;;;;6.18;1.30;;;11.00;99.90;;;;;;6222008;23;20024;-79
2022/09/27 08:14:34;;;;;;;4.82;1.00;;;11.00;99.90;;;;;;6161925;23;20074;-80
2022/09/27 08:17:00;;;;;;;4.38;0.95;;;10.90;99.90;;;;;;6184242;23;20020;-81
2022/09/27 08:19:26;;;;;;;5.78;1.10;;;10.90;99.90;;;;;;6134324;23;20028;-80
2022/09/27 08:21:53;;;;;;;6.95;1.58;;;10.90;99.90;;;;;;6158905;23;20399;-80
2022/09/27 08:24:20;;;;;;;3.70;1.65;;;11.00;99.90;;;;;;6182924;23;20463;-79
2022/09/27 08:26:45;;;;;;;6.75;1.30;;;11.10;99.90;;;;;;6208247;23;20021;-79
2022/09/27 08:29:11;;;;;;;7.05;1.50;;;11.10;99.90;;;;;;6183956;23;20090;-79
2022/09/27 08:31:37;;;;;;;3.70;1.00;;;11.20;99.90;;;;;;6183857;23;20025;-79
2022/09/27 08:34:03;;;;;;;6.47;1.05;;;11.30;99.90;;;;;;6184348;23;20106;-79
2022/09/27 08:36:30;;;;;;;3.70;0.90;;;11.50;99.90;;;;;;6159133;23;20255;-79
2022/09/27 08:38:58;;;;;;;4.68;1.00;;;11.60;99.90;;;;;;6183087;23;20024;-79
2022/09/27 08:41:51;;;;;;;4.57;0.80;;;11.70;99.90;;;;;;6209560;23;20052;-79
2022/09/27 08:44:37;;;;;;;7.22;1.23;;;11.80;99.90;;;;;;6208902;23;20352;-78
2022/09/27 08:47:16;;;;;;;5.07;1.08;;;11.90;99.90;;;;;;6183801;23;20021;-77
2022/09/27 08:50:26;;;;;;;7.88;1.05;;;11.90;99.90;;;;;;6207622;23;20027;-80
2022/09/27 08:52:59;;;;;;;6.38;1.20;;;11.80;99.90;;;;;;6207800;23;20086;-79
2022/09/27 08:55:39;;;;;;;6.38;0.98;;;11.70;99.90;;;;;;6183676;23;20336;-77
2022/09/27 08:58:18;;;;;;;9.25;1.30;;;11.60;99.90;;;;;;6208659;23;20016;-80
2022/09/27 09:00:44;;;;;;;6.75;1.23;;;11.50;99.90;;;;;;6182705;23;20020;-81
2022/09/27 09:03:18;;;;;;;3.42;0.98;;;11.60;99.90;;;;;;6183417;23;20631;-78
2022/09/27 09:05:59;;;;;;;10.35;1.45;;;11.20;99.90;;;;;;6183002;23;20021;-80
2022/09/27 09:08:57;;;;;;;3.65;1.05;;;11.10;99.90;;;;;;6183467;23;20072;-79
2022/09/27 09:14:46;;;;;;;7.85;0.98;;;10.90;99.90;;;;;;6208645;23;20025;-80
2022/09/27 09:17:51;;;;;;;8.70;1.33;;;10.80;99.90;;;;;;6184170;23;20023;-80
2022/09/27 09:20:43;;;;;;;7.80;1.27;;;10.80;99.90;;;;;;6208146;23;20095;-81
2022/09/27 09:23:30;;;;;;;3.63;1.20;;;10.80;99.90;;;;;;6203824;23;20016;-81
2022/09/27 09:26:02;;;;;;;4.28;0.90;;;10.80;99.90;;;;;;6183110;23;20020;-81
2022/09/27 09:28:43;;;;;;;4.53;1.02;;;10.80;99.90;;;;;;6207895;23;20024;-81
2022/09/27 09:31:14;;;;;;;5.40;1.45;;;10.90;99.90;;;;;;6183974;23;20017;-81
2022/09/27 09:33:52;;;;;;;3.90;0.90;;;10.90;99.90;;;;;;6182628;23;20028;-80
2022/09/27 09:36:34;;;;;;;7.88;1.42;;;11.00;99.90;;;;;;6210023;23;20012;-80
2022/09/27 09:39:40;;;;;;;4.90;1.00;;;11.10;99.90;;;;;;6209773;23;20078;-80
2022/09/27 09:42:12;;;;;;;5.50;0.80;;;11.20;99.90;;;;;;6205498;23;20020;-81
2022/09/27 09:44:44;;;;;;;2.85;0.80;;;11.30;99.90;;;;;;6184228;23;20031;-81
2022/09/27 09:47:42;;;;;;;4.05;0.95;;;11.40;99.90;;;;;;6184490;23;20021;-79
2022/09/27 09:50:35;;;;;;;4.40;0.90;;;11.50;99.90;;;;;;6183715;23;20031;-80
2022/09/27 09:53:29;;;;;;;2.28;0.50;;;11.60;99.90;;;;;;6209170;23;20017;-80
2022/09/27 09:56:01;;;;;;;1.80;0.60;;;11.60;99.90;;;;;;6184217;23;20104;-79
2022/09/27 09:58:33;;;;;;;3.75;0.70;;;11.70;99.90;;;;;;6209739;23;20013;-79
2022/09/27 10:01:12;;;;;;;4.13;0.73;;;11.80;99.90;;;;;;6184223;23;20021;-79
2022/09/27 10:03:37;;;;;;;1.17;0.60;;;11.90;99.90;;;;;;6183988;23;20412;-79
2022/09/27 10:06:03;;;;;;;3.50;0.60;;;12.00;99.90;;;;;;6134950;23;20020;-80
2022/09/27 10:08:29;;;;;;;2.67;0.50;;;12.00;99.90;;;;;;6184386;23;20063;-80
2022/09/27 10:10:54;;;;;;;1.33;0.50;;;12.20;99.90;;;;;;6184381;23;20024;-79
2022/09/27 10:13:21;;;;;;;1.02;0.40;;;12.30;99.90;;;;;;6159332;23;20358;-79
2022/09/27 10:16:05;;;;;;;3.35;0.65;;;12.40;99.90;;;;;;6167158;23;20032;-79
2022/09/27 10:18:32;;;;;;;3.22;0.70;;;12.50;99.90;;;;;;6190751;23;20020;-76
2022/09/27 10:21:05;;;;;;;2.63;0.60;;;12.70;99.90;;;;;;6158130;23;20009;-77
2022/09/27 10:23:34;;;;;;;2.53;0.65;;;12.90;99.90;;;;;;6183188;23;20092;-82
2022/09/27 10:26:02;;;;;;;4.68;0.80;;;13.10;99.90;;;;;;6135780;23;20102;-80
2022/09/27 10:28:33;;;;;;;2.92;0.60;;;13.20;99.90;;;;;;6218310;23;20016;-79
2022/09/27 10:31:05;;;;;;;3.58;0.75;;;13.50;99.90;;;;;;6206588;23;20052;-80
2022/09/27 10:33:32;;;;;;;4.72;0.80;;;13.60;99.90;;;;;;6206615;23;20020;-82
2022/09/27 10:35:59;;;;;;;3.10;0.88;;;13.50;99.90;;;;;;6180501;23;20063;-81
2022/09/27 10:38:28;;;;;;;6.95;1.23;;;13.40;99.90;;;;;;6207384;23;20503;-81
2022/09/27 10:40:57;;;;;;;5.80;1.20;;;13.10;99.90;;;;;;6182079;23;20055;-81
2022/09/27 10:43:30;;;;;;;2.95;0.90;;;13.10;99.90;;;;;;6182218;23;20020;-79
2022/09/27 10:46:08;;;;;;;7.55;2.67;;;12.90;99.90;;;;;;6181459;23;20408;-81
2022/09/27 10:48:35;;;;;;;5.55;2.22;;;12.80;99.90;;;;;;6208290;23;20016;-82
2022/09/27 10:51:06;;;;;;;9.07;5.22;;;12.80;99.90;;;;;;6182490;23;20497;-82
2022/09/27 10:53:35;;;;;;;5.72;2.75;;;12.80;99.90;;;;;;6183039;23;20056;-82
2022/09/27 10:56:01;;;;;;;1.90;1.00;;;12.90;99.90;;;;;;6182587;23;20071;-82
2022/09/27 10:58:33;;;;;;;10.88;3.70;;;12.90;99.90;;;;;;6182591;23;20451;-80
2022/09/27 11:01:11;;;;;;;1.83;0.85;;;13.00;99.90;;;;;;6207724;22;20078;-81
2022/09/27 11:03:56;;;;;;;3.00;0.60;;;13.10;99.90;;;;;;6208910;23;20021;-82
2022/09/27 11:06:22;;;;;;;2.92;0.57;;;13.20;99.90;;;;;;6208441;23;20330;-81
2022/09/27 11:08:50;;;;;;;2.42;0.68;;;13.30;99.90;;;;;;6182272;23;20071;-81
2022/09/27 11:11:20;;;;;;;2.35;0.68;;;13.40;99.90;;;;;;6210630;23;20016;-80
2022/09/27 11:14:06;;;;;;;2.38;0.88;;;13.60;99.90;;;;;;6185296;23;20054;-78
2022/09/27 11:17:02;;;;;;;2.70;0.60;;;13.70;99.90;;;;;;6184933;23;20082;-83
2022/09/27 11:19:47;;;;;;;1.25;0.60;;;13.70;99.90;;;;;;6152118;23;20024;-79
2022/09/27 11:22:37;;;;;;;2.28;0.70;;;12.60;99.90;;;;;;6184949;23;20027;-79
2022/09/27 11:25:15;;;;;;;1.92;0.60;;;14.20;99.90;;;;;;6184212;23;20040;-80
2022/09/27 11:28:05;;;;;;;2.42;0.60;;;14.30;99.90;;;;;;6208675;23;20020;-80
2022/09/27 11:30:57;;;;;;;2.20;0.60;;;14.30;99.90;;;;;;6207288;23;20099;-80
2022/09/27 11:33:46;;;;;;;3.22;0.52;;;14.10;99.90;;;;;;6170101;23;20023;-80
2022/09/27 11:36:31;;;;;;;3.00;0.60;;;13.90;99.90;;;;;;6170848;23;20523;-80
2022/09/27 11:39:11;;;;;;;3.80;0.88;;;13.70;99.90;;;;;;6183338;23;20429;-81
2022/09/27 11:41:52;;;;;;;2.90;0.60;;;13.50;99.90;;;;;;6208503;23;20016;-80
2022/09/27 11:44:45;;;;;;;2.42;0.50;;;13.30;99.90;;;;;;6208892;23;20012;-80
2022/09/27 11:47:41;;;;;;;4.03;0.75;;;13.20;99.90;;;;;;6183602;23;20016;-80
2022/09/27 11:50:17;;;;;;;1.42;0.60;;;13.40;99.90;;;;;;6182890;23;20012;-78
2022/09/27 11:53:00;;;;;;;4.50;0.80;;;13.30;99.90;;;;;;6184164;23;20021;-80
2022/09/27 11:56:02;;;;;;;2.00;0.75;;;13.00;99.90;;;;;;6183487;23;20017;-81
2022/09/27 11:58:49;;;;;;;1.52;0.60;;;12.70;99.90;;;;;;6183288;23;20019;-81
2022/09/27 12:01:32;;;;;;;3.58;0.75;;;12.40;99.90;;;;;;6243871;22;20347;-80
2022/09/27 12:04:31;;;;;;;6.10;1.08;;;12.30;99.90;;;;;;6244220;22;20081;-80
2022/09/27 12:07:23;;;;;;;7.35;1.42;;;12.10;99.90;;;;;;6243751;22;20123;-81
2022/09/27 12:09:56;;;;;;;6.82;1.20;;;12.00;99.90;;;;;;6218066;22;20023;-81
2022/09/27 12:12:27;;;;;;;4.20;0.88;;;11.90;99.90;;;;;;6243511;22;20020;-81
2022/09/27 12:15:00;;;;;;;3.60;1.08;;;11.90;99.90;;;;;;6244632;22;20012;-81
2022/09/27 12:17:30;;;;;;;4.78;1.23;;;11.80;99.90;;;;;;6245060;22;20016;-80
2022/09/27 12:20:05;;;;;;;3.08;0.95;;;11.90;99.90;;;;;;6218430;22;20016;-80
2022/09/27 12:22:46;;;;;;;5.70;1.05;;;11.90;99.90;;;;;;6245394;22;20066;-80
2022/09/27 12:25:16;;;;;;;4.78;0.90;;;12.10;99.90;;;;;;6244819;22;20027;-78
2022/09/27 12:28:33;;;;;;;4.85;1.00;;;12.00;99.90;;;;;;6244562;22;20020;-84
2022/09/27 12:31:10;;;;;;;5.60;1.00;;;11.90;99.90;;;;;;6109846;22;20061;-82
2022/09/27 12:34:05;;;;;;;5.13;1.05;;;11.90;99.90;;;;;;6229627;22;20020;-82
2022/09/27 12:36:42;;;;;;;3.60;0.80;;;11.90;99.90;;;;;;6258097;22;20023;-82
2022/09/27 12:39:21;;;;;;;1.55;0.55;;;12.10;99.90;;;;;;6243756;22;20384;-82
2022/09/27 12:42:04;;;;;;;1.55;0.68;;;12.30;99.90;;;;;;6220072;22;20050;-80
2022/09/27 12:44:40;;;;;;;2.95;0.80;;;12.40;99.90;;;;;;6223952;22;20054;-81
2022/09/27 12:47:10;;;;;;;;;;;12.40;99.90;;;;;;6235141;22;20050;-81
2022/09/27 12:49:58;;;;;;;4.57;1.00;;;12.50;99.90;;;;;;6219085;22;20305;-84
2022/09/27 12:52:29;;;;;;;2.60;0.77;;;12.70;99.90;;;;;;6219447;22;20024;-79
2022/09/27 12:55:22;;;;;;;3.78;0.80;;;13.00;99.90;;;;;;6243189;22;20482;-83
2022/09/27 12:58:21;;;;;;;1.90;0.57;;;13.20;99.90;;;;;;6218231;22;20022;-82
2022/09/27 13:01:02;;;;;;;3.83;0.68;;;13.30;99.90;;;;;;6217830;22;20012;-83
2022/09/27 13:03:34;;;;;;;4.60;0.75;;;13.30;99.90;;;;;;6217644;22;20030;-83
2022/09/27 13:06:06;;;;;;;3.60;0.90;;;13.30;99.90;;;;;;6216835;22;20446;-81
2022/09/27 13:08:58;;;;;;;4.97;1.00;;;13.20;99.90;;;;;;6217850;22;20386;-82
2022/09/27 13:11:48;;;;;;;4.43;0.70;;;13.20;99.90;;;;;;6197397;22;20062;-83
2022/09/27 13:14:20;;;;;;;5.35;0.90;;;13.10;99.90;;;;;;6143064;22;20027;-87
2022/09/27 13:16:48;;;;;;;3.88;0.80;;;13.40;99.90;;;;;;6219720;22;20099;-83
2022/09/27 13:19:42;;;;;;;4.90;0.93;;;13.10;99.90;;;;;;6216853;22;20055;-82
2022/09/27 13:22:27;;;;;;;4.10;1.60;;;13.20;99.90;;;;;;6217615;22;20023;-82
2022/09/27 13:24:53;;;;;;;5.18;1.00;;;14.30;99.90;;;;;;6217086;22;20011;-82
2022/09/27 13:27:22;;;;;;;3.85;0.80;;;13.10;99.90;;;;;;6217273;22;20038;-83
2022/09/27 13:29:49;;;;;;;2.78;0.80;;;13.20;99.90;;;;;;6217365;22;20019;-77